createdAt,value
2018-07-27T00:07:05.339Z,80.10
2018-07-27T00:17:08.398Z,80.80
2018-07-27T00:27:13.568Z,81.90
2018-07-27T00:37:16.687Z,83.60
2018-07-27T00:47:19.724Z,84.10
2018-07-27T00:57:24.819Z,85.20
2018-07-27T01:07:27.853Z,87.20
2018-07-27T01:17:30.886Z,87.90
2018-07-27T01:27:33.932Z,88.70
2018-07-27T01:37:37.060Z,89.60
2018-07-27T01:47:40.079Z,89.70
2018-07-27T01:57:43.104Z,90.00
2018-07-27T02:07:46.117Z,90.90
2018-07-27T02:17:49.133Z,91.40
2018-07-27T02:27:52.214Z,91.10
2018-07-27T02:37:55.231Z,91.70
2018-07-27T02:47:58.271Z,92.50
2018-07-27T02:58:01.366Z,93.90
2018-07-27T03:08:04.755Z,95.20
2018-07-27T03:18:07.764Z,94.60
2018-07-27T03:28:10.786Z,94.80
2018-07-27T03:38:13.843Z,94.70
2018-07-27T03:48:16.830Z,95.70
2018-07-27T03:58:19.885Z,97.30
2018-07-27T04:08:22.887Z,99.90
2018-07-27T04:18:25.901Z,99.90
2018-07-27T04:28:28.923Z,99.90
2018-07-27T04:38:31.938Z,99.90
2018-07-27T04:48:34.966Z,99.90
2018-07-27T04:58:37.970Z,99.90
2018-07-27T05:08:46.522Z,99.90
2018-07-27T05:28:52.542Z,99.90
2018-07-27T05:38:55.886Z,99.90
2018-07-27T05:48:58.938Z,99.90
2018-07-27T05:59:02.038Z,99.90
2018-07-27T06:09:10.346Z,99.90
2018-07-27T06:19:13.762Z,99.90
2018-07-27T06:29:16.905Z,99.90
2018-07-27T06:39:20.050Z,99.90
2018-07-27T06:49:25.200Z,99.90
2018-07-27T06:59:28.397Z,99.90
2018-07-27T07:09:31.466Z,99.90
2018-07-27T07:19:34.521Z,99.90
2018-07-27T07:29:37.583Z,99.90
2018-07-27T07:39:40.627Z,99.90
2018-07-27T07:49:43.722Z,99.90
2018-07-27T07:59:46.754Z,99.60
2018-07-27T08:09:49.942Z,99.10
2018-07-27T08:19:53.012Z,95.60
2018-07-27T08:29:56.080Z,94.70
2018-07-27T08:39:59.170Z,94.70
2018-07-27T08:50:02.215Z,93.70
2018-07-27T09:00:05.646Z,90.10
2018-07-27T09:10:08.694Z,87.50
2018-07-27T09:20:11.742Z,85.80
2018-07-27T09:30:14.791Z,86.90
2018-07-27T09:40:18.888Z,88.40
2018-07-27T09:50:21.953Z,86.80
2018-07-27T10:00:30.639Z,85.90
2018-07-27T10:10:34.105Z,84.90
2018-07-27T10:20:37.189Z,82.60
2018-07-27T10:30:40.332Z,80.20
2018-07-27T10:50:47.283Z,77.80
2018-07-27T11:00:50.715Z,77.10
2018-07-27T11:10:53.751Z,74.50
2018-07-27T11:20:57.486Z,69.20
2018-07-27T11:31:00.561Z,66.70
2018-07-27T11:41:03.550Z,58.30
2018-07-27T11:51:06.632Z,61.70
2018-07-27T12:01:09.670Z,57.80
2018-07-27T12:11:12.737Z,62.20
2018-07-27T12:21:20.770Z,58.50
2018-07-27T12:31:23.870Z,60.70
2018-07-27T12:41:34.999Z,59.50
2018-07-27T12:51:38.195Z,56.20
2018-07-27T13:01:41.340Z,53.30
2018-07-27T13:11:44.416Z,53.20
2018-07-27T13:21:48.408Z,59.40
2018-07-27T13:31:53.611Z,57.30
2018-07-27T13:41:59.846Z,56.20
2018-07-27T13:52:02.871Z,56.50
2018-07-27T14:02:06.078Z,53.70
2018-07-27T14:12:09.094Z,54.40
2018-07-27T14:22:12.105Z,54.20
2018-07-27T14:32:15.118Z,53.30
2018-07-27T14:42:18.125Z,52.50
2018-07-27T14:52:21.200Z,55.60
2018-07-27T15:02:24.171Z,54.90
2018-07-27T15:12:27.192Z,54.40
2018-07-27T15:22:30.201Z,54.80
2018-07-27T15:32:33.208Z,54.90
2018-07-27T15:42:37.054Z,56.70
2018-07-27T15:52:40.061Z,55.90
2018-07-27T16:02:43.116Z,56.30
2018-07-27T16:12:46.150Z,57.70
2018-07-27T16:22:50.277Z,57.00
2018-07-27T16:32:53.330Z,57.70
2018-07-27T16:42:56.484Z,56.60
2018-07-27T16:52:59.688Z,57.60
2018-07-27T17:03:02.701Z,59.00
2018-07-27T17:13:05.743Z,61.10
2018-07-27T17:23:08.770Z,63.40
2018-07-27T17:33:11.813Z,64.70
2018-07-27T17:43:14.827Z,65.20
2018-07-27T17:53:17.887Z,65.10
2018-07-27T18:03:20.911Z,64.60
2018-07-27T18:13:24.019Z,61.80
2018-07-27T18:23:27.102Z,60.30
2018-07-27T18:33:30.171Z,60.70
2018-07-27T18:43:33.254Z,62.00
2018-07-27T18:53:43.629Z,62.10
2018-07-27T19:03:46.774Z,61.80
2018-07-27T19:13:49.793Z,63.10
2018-07-27T19:23:52.851Z,64.30
2018-07-27T19:33:56.941Z,65.70
2018-07-27T19:44:00.017Z,66.70
2018-07-27T19:54:03.559Z,66.40
2018-07-27T20:04:06.643Z,66.90
2018-07-27T20:14:10.016Z,67.70
2018-07-27T20:24:13.062Z,67.60
2018-07-27T20:34:16.078Z,67.50
2018-07-27T20:44:19.120Z,68.80
2018-07-27T20:54:22.423Z,70.10
2018-07-27T21:04:25.557Z,71.00
2018-07-27T21:14:28.540Z,71.10
2018-07-27T21:24:31.811Z,72.20
2018-07-27T21:34:35.040Z,73.00
2018-07-27T21:44:38.061Z,74.10
2018-07-27T21:54:41.154Z,74.30
2018-07-27T22:04:44.182Z,74.30
2018-07-27T22:14:47.227Z,75.30
2018-07-27T22:24:50.336Z,75.60
2018-07-27T22:34:53.367Z,77.00
2018-07-27T22:44:56.435Z,77.60
2018-07-27T22:54:59.968Z,78.30
2018-07-27T23:05:03.062Z,79.00
2018-07-27T23:15:07.452Z,80.40
2018-07-27T23:25:10.543Z,80.80
2018-07-27T23:35:13.582Z,81.60
2018-07-27T23:55:19.488Z,82.80
